createdAt,value
2018-05-25T00:01:35.782Z,18.80
2018-05-25T00:04:03.546Z,18.80
2018-05-25T00:06:32.465Z,18.80
2018-05-25T00:09:00.321Z,18.70
2018-05-25T00:11:27.962Z,18.70
2018-05-25T00:13:55.845Z,18.70
2018-05-25T00:16:23.701Z,18.70
2018-05-25T00:18:51.780Z,18.60
2018-05-25T00:21:19.638Z,18.50
2018-05-25T00:23:47.831Z,18.50
2018-05-25T00:26:15.679Z,18.50
2018-05-25T00:28:43.963Z,18.50
2018-05-25T00:31:12.026Z,18.50
2018-05-25T00:33:39.900Z,18.40
2018-05-25T00:36:07.549Z,18.40
2018-05-25T00:38:35.752Z,18.30
2018-05-25T00:41:04.818Z,18.10
2018-05-25T00:43:33.700Z,18.00
2018-05-25T00:46:01.871Z,18.00
2018-05-25T00:48:29.635Z,18.00
2018-05-25T00:50:57.923Z,18.00
2018-05-25T00:53:25.791Z,18.00
2018-05-25T00:55:53.975Z,18.00
2018-05-25T00:58:21.753Z,18.00
2018-05-25T01:00:49.898Z,17.80
2018-05-25T01:03:17.761Z,17.90
2018-05-25T01:05:45.634Z,17.90
2018-05-25T01:08:14.005Z,17.90
2018-05-25T01:10:41.769Z,17.90
2018-05-25T01:15:39.857Z,17.80
2018-05-25T01:18:08.645Z,17.80
2018-05-25T01:20:36.417Z,17.70
2018-05-25T01:23:04.375Z,17.70
2018-05-25T01:25:32.151Z,17.70
2018-05-25T01:28:00.006Z,17.60
2018-05-25T01:30:28.833Z,17.50
2018-05-25T01:32:57.894Z,17.50
2018-05-25T01:35:25.551Z,17.50
2018-05-25T01:37:53.721Z,17.50
2018-05-25T01:40:21.783Z,17.50
2018-05-25T01:42:49.955Z,17.50
2018-05-25T01:45:17.737Z,17.50
2018-05-25T01:47:45.920Z,17.50
2018-05-25T01:50:13.769Z,17.50
2018-05-25T01:52:41.437Z,17.50
2018-05-25T01:55:09.901Z,17.50
2018-05-25T01:57:37.592Z,17.50
2018-05-25T02:00:05.765Z,17.50
2018-05-25T02:02:33.930Z,17.50
2018-05-25T02:05:01.788Z,17.40
2018-05-25T02:07:29.650Z,17.30
2018-05-25T02:09:57.825Z,17.30
2018-05-25T02:12:25.585Z,17.30
2018-05-25T02:14:53.769Z,17.30
2018-05-25T02:17:21.651Z,17.30
2018-05-25T02:19:49.809Z,17.20
2018-05-25T02:22:17.446Z,17.10
2018-05-25T02:24:47.371Z,17.10
2018-05-25T02:27:15.853Z,17.10
2018-05-25T02:29:43.509Z,17.10
2018-05-25T02:32:11.785Z,17.10
2018-05-25T02:34:39.553Z,17.10
2018-05-25T02:37:07.609Z,17.00
2018-05-25T02:42:04.370Z,17.20
2018-05-25T02:44:32.154Z,17.20
2018-05-25T02:46:59.912Z,17.30
2018-05-25T02:49:27.782Z,17.30
2018-05-25T02:51:55.734Z,17.20
2018-05-25T02:54:23.918Z,17.20
2018-05-25T02:56:51.776Z,17.20
2018-05-25T02:59:19.646Z,17.20
2018-05-25T03:01:47.709Z,17.30
2018-05-25T03:04:15.777Z,17.20
2018-05-25T03:06:43.850Z,17.10
2018-05-25T03:09:12.986Z,17.00
2018-05-25T03:11:41.936Z,17.00
2018-05-25T03:14:09.807Z,17.10
2018-05-25T03:16:37.592Z,17.20
2018-05-25T03:19:05.746Z,17.20
2018-05-25T03:21:33.912Z,17.20
2018-05-25T03:24:01.573Z,17.30
2018-05-25T03:26:29.632Z,17.20
2018-05-25T03:28:57.711Z,17.20
2018-05-25T03:31:25.991Z,17.10
2018-05-25T03:33:54.178Z,17.10
2018-05-25T03:36:22.136Z,17.10
2018-05-25T03:38:49.995Z,17.10
2018-05-25T03:41:17.767Z,17.10
2018-05-25T03:43:45.939Z,17.20
2018-05-25T03:46:13.592Z,17.20
2018-05-25T03:48:42.384Z,17.10
2018-05-25T03:51:10.154Z,17.00
2018-05-25T03:53:37.914Z,17.00
2018-05-25T03:56:05.680Z,17.00
2018-05-25T03:58:45.821Z,17.00
2018-05-25T04:01:25.469Z,16.90
2018-05-25T04:06:22.329Z,17.00
2018-05-25T04:08:50.192Z,17.00
2018-05-25T04:11:18.071Z,17.00
2018-05-25T04:13:46.637Z,17.00
2018-05-25T04:16:14.404Z,17.00
2018-05-25T04:18:42.180Z,17.00
2018-05-25T04:21:10.034Z,17.00
2018-05-25T04:23:37.900Z,17.00
2018-05-25T04:26:05.961Z,17.00
2018-05-25T04:28:33.742Z,17.00
2018-05-25T04:31:01.910Z,17.00
2018-05-25T04:33:29.669Z,17.10
2018-05-25T04:35:58.355Z,17.10
2018-05-25T04:38:26.193Z,17.10
2018-05-25T04:40:54.589Z,17.10
2018-05-25T04:43:22.258Z,17.20
2018-05-25T04:45:50.436Z,17.20
2018-05-25T04:48:18.312Z,17.30
2018-05-25T04:50:46.881Z,17.30
2018-05-25T04:53:14.531Z,17.30
2018-05-25T04:55:42.304Z,17.40
2018-05-25T04:58:10.066Z,17.50
2018-05-25T05:00:37.752Z,17.50
2018-05-25T05:03:05.911Z,17.70
2018-05-25T05:05:33.766Z,17.70
2018-05-25T05:08:01.949Z,17.70
2018-05-25T05:10:29.810Z,17.80
2018-05-25T05:12:57.569Z,17.80
2018-05-25T05:15:25.753Z,17.90
2018-05-25T05:17:53.911Z,18.00
2018-05-25T05:20:21.682Z,18.10
2018-05-25T05:22:49.746Z,18.20
2018-05-25T05:25:18.007Z,18.20
2018-05-25T05:27:45.675Z,18.20
2018-05-25T05:30:13.869Z,18.30
2018-05-25T05:32:41.624Z,18.30
2018-05-25T05:35:09.804Z,18.40
2018-05-25T05:37:37.651Z,18.50
2018-05-25T05:40:06.550Z,18.60
2018-05-25T05:42:34.317Z,18.60
2018-05-25T05:45:02.077Z,18.70
2018-05-25T05:47:29.833Z,18.80
2018-05-25T05:49:57.705Z,18.90
2018-05-25T05:52:25.881Z,18.90
2018-05-25T05:54:53.532Z,19.10
2018-05-25T05:57:21.610Z,19.10
2018-05-25T05:59:49.794Z,19.20
2018-05-25T06:02:17.846Z,19.30
2018-05-25T06:04:46.754Z,19.40
2018-05-25T06:07:14.607Z,19.50
2018-05-25T06:09:42.394Z,19.60
2018-05-25T06:12:10.551Z,19.70
2018-05-25T06:14:38.410Z,19.80
2018-05-25T06:17:06.060Z,20.00
2018-05-25T06:19:33.829Z,20.00
2018-05-25T06:22:02.942Z,20.00
2018-05-25T06:24:30.895Z,20.10
2018-05-25T06:26:58.761Z,20.10
2018-05-25T06:29:26.435Z,20.10
2018-05-25T06:31:55.717Z,20.20
2018-05-25T06:34:23.921Z,20.40
2018-05-25T06:39:20.756Z,20.50
2018-05-25T06:41:48.626Z,20.70
2018-05-25T06:44:16.488Z,20.70
2018-05-25T06:46:44.147Z,20.60
2018-05-25T06:49:11.901Z,20.70
2018-05-25T06:51:39.671Z,20.80
2018-05-25T06:54:07.863Z,20.90
2018-05-25T06:56:35.905Z,21.10
2018-05-25T06:59:03.683Z,21.10
2018-05-25T07:01:31.878Z,21.20
2018-05-25T07:03:59.630Z,21.20
2018-05-25T07:06:27.789Z,21.30
2018-05-25T07:08:55.848Z,21.30
2018-05-25T07:11:23.672Z,21.30
2018-05-25T07:13:51.918Z,21.30
2018-05-25T07:18:48.647Z,21.30
2018-05-25T07:21:16.305Z,21.50
2018-05-25T07:23:44.394Z,21.60
2018-05-25T07:26:12.146Z,21.70
2018-05-25T07:28:40.019Z,21.70
2018-05-25T07:31:07.883Z,21.70
2018-05-25T07:33:35.753Z,21.80
2018-05-25T07:36:03.836Z,21.90
2018-05-25T07:38:31.595Z,22.10
2018-05-25T07:41:00.576Z,22.20
2018-05-25T07:43:29.146Z,22.40
2018-05-25T07:45:56.813Z,22.50
2018-05-25T07:48:24.695Z,22.60
2018-05-25T07:50:52.449Z,22.60
2018-05-25T07:53:20.097Z,22.70
2018-05-25T07:55:47.868Z,22.90
2018-05-25T07:58:15.638Z,23.00
2018-05-25T08:00:43.695Z,23.00
2018-05-25T08:03:12.599Z,23.10
2018-05-25T08:05:40.460Z,23.20
2018-05-25T08:08:08.655Z,23.30
2018-05-25T08:10:36.501Z,23.40
2018-05-25T08:13:04.366Z,23.50
2018-05-25T08:15:32.120Z,23.60
2018-05-25T08:18:00.609Z,23.60
2018-05-25T08:20:28.473Z,23.70
2018-05-25T08:22:56.246Z,23.70
2018-05-25T08:25:24.019Z,23.80
2018-05-25T08:27:51.759Z,23.60
2018-05-25T08:30:20.079Z,23.50
2018-05-25T08:32:47.809Z,23.50
2018-05-25T08:35:16.074Z,23.70
2018-05-25T08:37:43.772Z,23.90
2018-05-25T08:40:12.120Z,23.80
2018-05-25T08:42:39.862Z,23.70
2018-05-25T08:45:08.769Z,23.70
2018-05-25T08:47:36.637Z,23.70
2018-05-25T08:50:04.505Z,23.90
2018-05-25T08:52:32.372Z,24.00
2018-05-25T08:55:00.237Z,24.20
2018-05-25T08:57:27.998Z,24.40
2018-05-25T08:59:55.763Z,24.40
2018-05-25T09:02:24.040Z,24.50
2018-05-25T09:04:51.920Z,24.60
2018-05-25T09:07:19.550Z,24.50
2018-05-25T09:09:47.844Z,24.50
2018-05-25T09:12:15.609Z,24.40
2018-05-25T09:14:43.877Z,24.50
2018-05-25T09:17:11.526Z,24.30
2018-05-25T09:19:40.312Z,24.10
2018-05-25T09:22:08.102Z,24.30
2018-05-25T09:24:35.855Z,24.30
2018-05-25T09:27:03.717Z,24.40
2018-05-25T09:29:31.897Z,24.50
2018-05-25T09:31:59.740Z,24.70
2018-05-25T09:34:28.643Z,24.90
2018-05-25T09:36:56.418Z,25.10
2018-05-25T09:39:24.300Z,25.10
2018-05-25T09:41:52.031Z,25.10
2018-05-25T09:44:20.259Z,25.20
2018-05-25T09:46:48.794Z,25.20
2018-05-25T09:49:17.381Z,25.30
2018-05-25T09:51:45.987Z,25.20
2018-05-25T09:54:13.825Z,25.20
2018-05-25T09:59:44.168Z,25.40
2018-05-25T10:02:11.835Z,25.40
2018-05-25T10:04:40.003Z,25.50
2018-05-25T10:07:07.797Z,25.60
2018-05-25T10:09:35.825Z,25.60
2018-05-25T10:12:04.009Z,25.80
2018-05-25T10:14:31.770Z,26.00
2018-05-25T10:16:59.951Z,26.00
2018-05-25T10:19:27.916Z,26.10
2018-05-25T10:21:55.674Z,26.10
2018-05-25T10:24:23.872Z,26.20
2018-05-25T10:26:51.717Z,26.30
2018-05-25T10:29:19.888Z,26.30
2018-05-25T10:31:47.656Z,26.10
2018-05-25T10:34:15.824Z,25.70
2018-05-25T10:36:43.892Z,25.60
2018-05-25T10:39:11.657Z,25.70
2018-05-25T10:41:39.528Z,25.90
2018-05-25T10:44:08.116Z,25.80
2018-05-25T10:46:36.115Z,26.00
2018-05-25T10:49:05.471Z,26.00
2018-05-25T10:51:34.072Z,25.70
2018-05-25T10:54:01.973Z,25.60
2018-05-25T10:56:30.522Z,25.70
2018-05-25T10:58:58.377Z,25.60
2018-05-25T11:01:26.185Z,25.60
2018-05-25T11:06:23.835Z,25.70
2018-05-25T11:08:52.196Z,25.70
2018-05-25T11:11:20.071Z,25.70
2018-05-25T11:13:47.825Z,25.60
2018-05-25T11:16:16.009Z,25.70
2018-05-25T11:18:43.865Z,25.60
2018-05-25T11:21:11.512Z,25.40
2018-05-25T11:23:39.990Z,25.10
2018-05-25T11:26:07.778Z,24.90
2018-05-25T11:28:35.831Z,24.90
2018-05-25T11:31:04.427Z,24.80
2018-05-25T11:33:32.293Z,24.80
2018-05-25T11:36:00.048Z,24.90
2018-05-25T11:38:27.923Z,24.90
2018-05-25T11:40:55.689Z,25.00
2018-05-25T11:43:23.850Z,24.80
2018-05-25T11:45:51.918Z,24.70
2018-05-25T11:48:19.675Z,24.80
2018-05-25T11:50:47.752Z,24.60
2018-05-25T11:53:15.934Z,24.80
2018-05-25T11:55:43.814Z,24.80
2018-05-25T11:58:11.973Z,24.80
2018-05-25T12:00:39.732Z,24.80
2018-05-25T12:03:07.924Z,24.80
2018-05-25T12:05:36.074Z,24.80
2018-05-25T12:08:03.843Z,24.80
2018-05-25T12:10:32.115Z,24.90
2018-05-25T12:12:59.904Z,25.00
2018-05-25T12:15:27.637Z,25.10
2018-05-25T12:17:55.925Z,24.80
2018-05-25T12:20:23.707Z,24.80
2018-05-25T12:22:51.866Z,24.80
2018-05-25T12:25:20.029Z,25.10
2018-05-25T12:27:47.814Z,25.30
2018-05-25T12:30:15.969Z,25.50
2018-05-25T12:32:43.826Z,25.60
2018-05-25T12:35:12.019Z,25.90
2018-05-25T12:37:39.870Z,26.00
2018-05-25T12:40:08.044Z,26.20
2018-05-25T12:42:35.819Z,26.40
2018-05-25T12:45:11.972Z,26.50
2018-05-25T12:47:40.233Z,26.40
2018-05-25T12:50:08.413Z,26.40
2018-05-25T12:52:36.065Z,26.30
2018-05-25T12:55:03.837Z,26.30
2018-05-25T12:57:32.120Z,26.50
2018-05-25T12:59:59.873Z,26.70
2018-05-25T13:02:27.849Z,26.90
2018-05-25T13:04:56.038Z,26.60
2018-05-25T13:07:23.894Z,26.60
2018-05-25T13:09:51.752Z,26.90
2018-05-25T13:12:19.944Z,26.50
2018-05-25T13:14:47.795Z,26.40
2018-05-25T13:17:15.860Z,26.60
2018-05-25T13:19:44.036Z,26.50
2018-05-25T13:22:11.678Z,26.50
2018-05-25T13:24:39.873Z,26.50
2018-05-25T13:27:07.928Z,26.60
2018-05-25T13:29:35.710Z,26.70
2018-05-25T13:32:03.973Z,26.30
2018-05-25T13:34:31.782Z,26.30
2018-05-25T13:37:00.010Z,26.40
2018-05-25T13:39:27.784Z,26.30
2018-05-25T13:41:55.961Z,26.40
2018-05-25T13:44:23.740Z,26.70
2018-05-25T13:46:51.991Z,27.00
2018-05-25T13:49:19.711Z,27.00
2018-05-25T13:51:47.940Z,27.10
2018-05-25T13:54:15.796Z,26.90
2018-05-25T13:56:43.970Z,26.80
2018-05-25T13:59:11.821Z,26.60
2018-05-25T14:01:39.888Z,26.50
2018-05-25T14:04:07.667Z,26.50
2018-05-25T14:06:35.932Z,26.50
2018-05-25T14:09:03.905Z,26.70
2018-05-25T14:11:31.676Z,27.00
2018-05-25T14:13:59.870Z,27.00
2018-05-25T14:16:27.912Z,26.60
2018-05-25T14:18:55.788Z,26.40
2018-05-25T14:21:23.842Z,26.50
2018-05-25T14:23:52.315Z,26.40
2018-05-25T14:26:20.110Z,26.60
2018-05-25T14:28:47.862Z,26.50
2018-05-25T14:31:16.032Z,26.50
2018-05-25T14:33:43.826Z,26.40
2018-05-25T14:36:11.857Z,26.30
2018-05-25T14:38:40.055Z,26.40
2018-05-25T14:41:07.686Z,26.60
2018-05-25T14:43:35.870Z,26.60
2018-05-25T14:46:04.053Z,26.80
2018-05-25T14:48:31.921Z,27.10
2018-05-25T14:50:59.575Z,27.60
2018-05-25T14:53:28.163Z,27.30
2018-05-25T14:55:55.927Z,27.50
2018-05-25T14:58:23.697Z,27.70
2018-05-25T15:00:51.875Z,27.90
2018-05-25T15:03:20.232Z,27.90
2018-05-25T15:05:48.644Z,27.90
2018-05-25T15:08:16.370Z,27.60
2018-05-25T15:10:44.152Z,28.20
2018-05-25T15:13:12.041Z,28.60
2018-05-25T15:15:41.410Z,29.00
2018-05-25T15:18:09.989Z,29.60
2018-05-25T15:20:37.654Z,29.80
2018-05-25T15:23:05.940Z,29.30
2018-05-25T15:25:33.583Z,29.60
2018-05-25T15:28:02.301Z,30.30
2018-05-25T15:30:30.140Z,29.80
2018-05-25T15:32:57.762Z,29.70
2018-05-25T15:35:25.977Z,29.70
2018-05-25T15:37:53.626Z,29.90
2018-05-25T15:40:22.223Z,29.50
2018-05-25T15:42:49.977Z,29.10
2018-05-25T15:45:17.658Z,29.00
2018-05-25T15:47:45.706Z,28.50
2018-05-25T15:50:13.880Z,27.90
2018-05-25T15:52:41.957Z,27.70
2018-05-25T15:55:09.828Z,27.70
2018-05-25T15:57:38.090Z,27.70
2018-05-25T16:00:05.882Z,27.20
2018-05-25T16:02:34.142Z,27.10
2018-05-25T16:07:32.017Z,27.00
2018-05-25T16:09:59.677Z,26.50
2018-05-25T16:12:27.937Z,26.20
2018-05-25T16:14:57.036Z,25.40
2018-05-25T16:17:28.222Z,25.00
2018-05-25T16:19:56.474Z,25.00
2018-05-25T16:22:25.197Z,24.60
2018-05-25T16:24:54.156Z,24.50
2018-05-25T16:27:22.623Z,24.40
2018-05-25T16:29:52.350Z,24.30
2018-05-25T16:32:21.492Z,24.40
2018-05-25T16:34:50.329Z,24.40
2018-05-25T16:39:47.886Z,23.90
2018-05-25T16:42:16.065Z,23.70
2018-05-25T16:44:43.836Z,23.40
2018-05-25T16:47:12.001Z,23.30
2018-05-25T16:49:40.186Z,23.30
2018-05-25T16:54:37.856Z,23.10
2018-05-25T16:57:05.911Z,23.10
2018-05-25T16:59:34.200Z,23.10
2018-05-25T17:02:01.961Z,23.20
2018-05-25T17:04:29.727Z,23.30
2018-05-25T17:06:57.907Z,23.10
2018-05-25T17:09:26.791Z,23.00
2018-05-25T17:11:54.549Z,22.90
2018-05-25T17:14:22.421Z,22.80
2018-05-25T17:16:50.287Z,23.00
2018-05-25T17:19:18.149Z,22.90
2018-05-25T17:21:45.916Z,23.00
2018-05-25T17:24:14.803Z,22.90
2018-05-25T17:26:42.469Z,22.90
2018-05-25T17:29:10.267Z,22.40
2018-05-25T17:31:38.700Z,22.40
2018-05-25T17:34:06.366Z,22.40
2018-05-25T17:36:34.130Z,22.40
2018-05-25T17:39:02.101Z,22.30
2018-05-25T17:41:29.961Z,22.20
2018-05-25T17:43:57.753Z,22.20
2018-05-25T17:46:26.023Z,22.20
2018-05-25T17:51:22.860Z,21.90
2018-05-25T17:53:51.532Z,21.60
2018-05-25T17:56:20.132Z,21.50
2018-05-25T17:58:47.881Z,21.50
2018-05-25T18:01:16.806Z,21.80
2018-05-25T18:03:45.973Z,22.00
2018-05-25T18:06:13.779Z,21.80
2018-05-25T18:08:42.022Z,21.80
2018-05-25T18:11:09.873Z,21.70
2018-05-25T18:13:38.164Z,21.80
2018-05-25T18:16:05.921Z,21.70
2018-05-25T18:18:34.211Z,21.60
2018-05-25T18:21:02.486Z,21.50
2018-05-25T18:23:30.251Z,21.50
2018-05-25T18:28:28.020Z,21.50
2018-05-25T18:30:55.795Z,21.50
2018-05-25T18:33:24.046Z,21.60
2018-05-25T18:35:51.717Z,21.50
2018-05-25T18:38:19.907Z,21.30
2018-05-25T18:40:48.278Z,21.40
2018-05-25T18:43:16.142Z,21.50
2018-05-25T18:45:44.015Z,21.60
2018-05-25T18:48:12.297Z,21.60
2018-05-25T18:50:40.062Z,21.40
2018-05-25T18:55:38.831Z,21.30
2018-05-25T18:58:06.646Z,21.20
2018-05-25T19:00:35.907Z,21.20
2018-05-25T19:03:04.098Z,21.20
2018-05-25T19:05:31.735Z,21.10
2018-05-25T19:08:00.022Z,21.20
2018-05-25T19:10:27.871Z,21.20
2018-05-25T19:12:56.402Z,21.20
2018-05-25T19:15:24.944Z,21.10
2018-05-25T19:17:52.828Z,21.10
2018-05-25T19:20:20.574Z,21.00
2018-05-25T19:22:48.439Z,21.00
2018-05-25T19:25:16.205Z,21.00
2018-05-25T19:27:44.074Z,21.00
2018-05-25T19:30:11.829Z,21.00
2018-05-25T19:32:40.002Z,21.00
2018-05-25T19:35:07.872Z,20.90
2018-05-25T19:37:36.143Z,20.90
2018-05-25T19:40:03.927Z,20.70
2018-05-25T19:42:32.090Z,20.60
2018-05-25T19:44:59.731Z,20.60
2018-05-25T19:47:28.017Z,20.60
2018-05-25T19:49:55.881Z,20.60
2018-05-25T19:52:24.076Z,20.60
2018-05-25T19:57:22.949Z,20.50
2018-05-25T19:59:50.954Z,20.50
2018-05-25T20:04:47.787Z,20.50
2018-05-25T20:07:15.977Z,20.30
2018-05-25T20:09:44.176Z,20.30
2018-05-25T20:12:12.624Z,20.30
2018-05-25T20:14:40.378Z,20.30
2018-05-25T20:17:08.030Z,20.10
2018-05-25T20:19:35.693Z,20.00
2018-05-25T20:22:03.860Z,20.00
2018-05-25T20:24:32.046Z,20.00
2018-05-25T20:26:59.812Z,20.00
2018-05-25T20:29:27.869Z,20.10
2018-05-25T20:31:55.942Z,20.10
2018-05-25T20:34:24.139Z,19.90
2018-05-25T20:36:51.885Z,20.00
2018-05-25T20:39:19.947Z,20.10
2018-05-25T20:41:48.131Z,20.10
2018-05-25T20:44:15.997Z,20.20
2018-05-25T20:46:43.666Z,20.20
2018-05-25T20:51:42.050Z,20.20
2018-05-25T20:54:09.917Z,20.20
2018-05-25T20:56:38.092Z,20.20
2018-05-25T21:01:36.001Z,20.20
2018-05-25T21:04:06.348Z,20.30
2018-05-25T21:06:35.840Z,20.20
2018-05-25T21:09:07.367Z,20.20
2018-05-25T21:11:37.458Z,20.20
2018-05-25T21:14:07.106Z,20.20
2018-05-25T21:16:35.962Z,20.10
2018-05-25T21:19:04.049Z,20.10
2018-05-25T21:21:31.899Z,20.00
2018-05-25T21:23:59.978Z,20.00
2018-05-25T21:26:28.160Z,19.90
2018-05-25T21:28:55.910Z,19.70
2018-05-25T21:31:23.982Z,19.70
2018-05-25T21:33:52.047Z,19.40
2018-05-25T21:36:19.779Z,19.10
2018-05-25T21:38:47.980Z,19.00
2018-05-25T21:41:15.650Z,18.90
2018-05-25T21:43:44.421Z,19.00
2018-05-25T21:46:12.195Z,19.10
2018-05-25T21:48:39.946Z,19.20
2018-05-25T21:51:08.130Z,19.20
2018-05-25T21:53:35.801Z,19.20
2018-05-25T21:56:04.066Z,19.20
2018-05-25T21:58:31.832Z,19.20
2018-05-25T22:01:00.006Z,19.10
2018-05-25T22:03:27.759Z,18.90
2018-05-25T22:05:56.548Z,19.00
2018-05-25T22:08:24.320Z,18.90
2018-05-25T22:10:51.980Z,18.60
2018-05-25T22:13:20.037Z,18.50
2018-05-25T22:15:48.231Z,18.60
2018-05-25T22:18:16.097Z,18.60
2018-05-25T22:20:50.310Z,18.70
2018-05-25T22:26:13.851Z,18.70
2018-05-25T22:28:42.065Z,18.70
2018-05-25T22:31:10.240Z,18.70
2018-05-25T22:33:37.901Z,18.70
2018-05-25T22:41:35.913Z,18.60
2018-05-25T22:44:15.951Z,18.60
2018-05-25T22:46:56.206Z,18.50
2018-05-25T22:49:35.952Z,18.50
2018-05-25T22:52:15.805Z,18.50
2018-05-25T22:54:43.972Z,18.50
2018-05-25T22:57:12.038Z,18.40
2018-05-25T22:59:39.713Z,18.40
2018-05-25T23:02:07.698Z,18.50
2018-05-25T23:04:35.859Z,18.50
2018-05-25T23:07:04.115Z,18.50
2018-05-25T23:09:31.895Z,18.50
2018-05-25T23:12:00.057Z,18.50
2018-05-25T23:14:27.705Z,18.40
2018-05-25T23:16:55.884Z,18.40
2018-05-25T23:19:23.968Z,18.30
2018-05-25T23:21:53.051Z,18.30
2018-05-25T23:24:20.816Z,18.30
2018-05-25T23:26:49.626Z,18.30
2018-05-25T23:29:19.000Z,18.30
2018-05-25T23:31:46.874Z,18.20
2018-05-25T23:34:14.636Z,18.20
2018-05-25T23:36:42.801Z,18.20
2018-05-25T23:39:10.567Z,18.20
2018-05-25T23:41:38.338Z,18.20
2018-05-25T23:44:06.097Z,18.10
2018-05-25T23:46:33.861Z,18.20
2018-05-25T23:49:02.134Z,18.10
2018-05-25T23:53:58.788Z,18.00
2018-05-25T23:56:26.664Z,18.10
2018-05-25T23:58:54.418Z,18.10
